sensor_id;sensor_type;location;lat;lon;timestamp;temperature;humidity
22781;DHT22;11557;50.884;4.322;2022-09-13T00:00:39;20.70;99.90
22781;DHT22;11557;50.884;4.322;2022-09-13T00:03:06;20.70;99.90
22781;DHT22;11557;50.884;4.322;2022-09-13T00:05:34;20.70;99.90
22781;DHT22;11557;50.884;4.322;2022-09-13T00:08:00;20.60;99.90
22781;DHT22;11557;50.884;4.322;2022-09-13T00:10:26;20.70;99.90
22781;DHT22;11557;50.884;4.322;2022-09-13T00:12:52;20.70;99.90
22781;DHT22;11557;50.884;4.322;2022-09-13T00:15:19;20.80;99.90
22781;DHT22;11557;50.884;4.322;2022-09-13T00:17:46;20.80;99.90
22781;DHT22;11557;50.884;4.322;2022-09-13T00:20:12;20.70;99.90
22781;DHT22;11557;50.884;4.322;2022-09-13T00:22:37;20.70;99.90
22781;DHT22;11557;50.884;4.322;2022-09-13T00:25:05;20.60;99.90
22781;DHT22;11557;50.884;4.322;2022-09-13T00:27:32;20.60;99.90
22781;DHT22;11557;50.884;4.322;2022-09-13T00:29:59;20.70;99.90
22781;DHT22;11557;50.884;4.322;2022-09-13T00:32:25;20.70;99.90
22781;DHT22;11557;50.884;4.322;2022-09-13T00:34:51;20.70;99.90
22781;DHT22;11557;50.884;4.322;2022-09-13T00:37:16;20.60;99.90
22781;DHT22;11557;50.884;4.322;2022-09-13T00:39:42;20.70;99.90
22781;DHT22;11557;50.884;4.322;2022-09-13T00:42:12;20.60;99.90
22781;DHT22;11557;50.884;4.322;2022-09-13T00:47:35;20.60;99.90
22781;DHT22;11557;50.884;4.322;2022-09-13T00:52:45;20.70;99.90
22781;DHT22;11557;50.884;4.322;2022-09-13T00:55:28;20.80;99.90
22781;DHT22;11557;50.884;4.322;2022-09-13T00:58:00;20.70;99.90
22781;DHT22;11557;50.884;4.322;2022-09-13T01:00:27;20.80;99.90
22781;DHT22;11557;50.884;4.322;2022-09-13T01:02:56;20.80;99.90
22781;DHT22;11557;50.884;4.322;2022-09-13T01:05:25;20.70;99.90
22781;DHT22;11557;50.884;4.322;2022-09-13T01:07:53;20.70;99.90
22781;DHT22;11557;50.884;4.322;2022-09-13T01:10:19;20.90;99.90
22781;DHT22;11557;50.884;4.322;2022-09-13T01:13:15;20.80;99.90
22781;DHT22;11557;50.884;4.322;2022-09-13T01:15:42;20.80;99.90
22781;DHT22;11557;50.884;4.322;2022-09-13T01:18:09;20.80;99.90
22781;DHT22;11557;50.884;4.322;2022-09-13T01:32:18;20.70;99.90
22781;DHT22;11557;50.884;4.322;2022-09-13T01:46:12;20.70;99.90
22781;DHT22;11557;50.884;4.322;2022-09-13T01:51:33;20.90;99.90
22781;DHT22;11557;50.884;4.322;2022-09-13T01:54:30;20.80;99.90
22781;DHT22;11557;50.884;4.322;2022-09-13T01:57:01;20.80;99.90
22781;DHT22;11557;50.884;4.322;2022-09-13T01:59:51;20.70;99.90
22781;DHT22;11557;50.884;4.322;2022-09-13T02:03:06;20.80;99.90
22781;DHT22;11557;50.884;4.322;2022-09-13T02:05:43;20.70;99.90
22781;DHT22;11557;50.884;4.322;2022-09-13T02:08:22;20.80;99.90
22781;DHT22;11557;50.884;4.322;2022-09-13T02:13:34;20.90;99.90
22781;DHT22;11557;50.884;4.322;2022-09-13T02:16:07;20.90;99.90
22781;DHT22;11557;50.884;4.322;2022-09-13T02:18:39;20.80;99.90
22781;DHT22;11557;50.884;4.322;2022-09-13T02:21:15;20.70;99.90
22781;DHT22;11557;50.884;4.322;2022-09-13T02:24:14;20.80;99.90
22781;DHT22;11557;50.884;4.322;2022-09-13T02:26:42;20.90;99.90
22781;DHT22;11557;50.884;4.322;2022-09-13T02:29:13;20.80;99.90
22781;DHT22;11557;50.884;4.322;2022-09-13T02:31:49;20.80;99.90
22781;DHT22;11557;50.884;4.322;2022-09-13T02:34:27;20.80;99.90
22781;DHT22;11557;50.884;4.322;2022-09-13T02:36:56;20.80;99.90
22781;DHT22;11557;50.884;4.322;2022-09-13T02:39:27;20.80;99.90
22781;DHT22;11557;50.884;4.322;2022-09-13T02:42:07;20.60;99.90
22781;DHT22;11557;50.884;4.322;2022-09-13T02:44:41;20.70;99.90
22781;DHT22;11557;50.884;4.322;2022-09-13T02:58:31;20.60;99.90
22781;DHT22;11557;50.884;4.322;2022-09-13T03:01:00;20.60;99.90
22781;DHT22;11557;50.884;4.322;2022-09-13T03:03:26;20.70;99.90
22781;DHT22;11557;50.884;4.322;2022-09-13T03:05:52;20.60;99.90
22781;DHT22;11557;50.884;4.322;2022-09-13T03:08:18;20.60;99.90
22781;DHT22;11557;50.884;4.322;2022-09-13T03:19:12;20.50;99.90
22781;DHT22;11557;50.884;4.322;2022-09-13T03:24:22;20.70;99.90
22781;DHT22;11557;50.884;4.322;2022-09-13T03:38:08;20.50;99.90
22781;DHT22;11557;50.884;4.322;2022-09-13T03:40:49;20.60;99.90
22781;DHT22;11557;50.884;4.322;2022-09-13T03:43:40;20.60;99.90
22781;DHT22;11557;50.884;4.322;2022-09-13T03:46:22;20.60;99.90
22781;DHT22;11557;50.884;4.322;2022-09-13T03:48:49;20.60;99.90
22781;DHT22;11557;50.884;4.322;2022-09-13T03:51:16;20.60;99.90
22781;DHT22;11557;50.884;4.322;2022-09-13T03:53:46;20.70;99.90
22781;DHT22;11557;50.884;4.322;2022-09-13T03:56:18;20.70;99.90
22781;DHT22;11557;50.884;4.322;2022-09-13T03:58:46;20.60;99.90
22781;DHT22;11557;50.884;4.322;2022-09-13T04:01:12;20.60;99.90
22781;DHT22;11557;50.884;4.322;2022-09-13T04:03:38;20.60;99.90
22781;DHT22;11557;50.884;4.322;2022-09-13T04:06:04;20.60;99.90
22781;DHT22;11557;50.884;4.322;2022-09-13T04:08:31;20.60;99.90
22781;DHT22;11557;50.884;4.322;2022-09-13T04:10:57;20.50;99.90
22781;DHT22;11557;50.884;4.322;2022-09-13T04:13:23;20.60;99.90
22781;DHT22;11557;50.884;4.322;2022-09-13T04:15:49;20.70;99.90
22781;DHT22;11557;50.884;4.322;2022-09-13T04:18:15;20.60;99.90
22781;DHT22;11557;50.884;4.322;2022-09-13T04:20:42;20.40;99.90
22781;DHT22;11557;50.884;4.322;2022-09-13T04:23:07;20.70;99.90
22781;DHT22;11557;50.884;4.322;2022-09-13T04:25:33;20.70;99.90
22781;DHT22;11557;50.884;4.322;2022-09-13T04:27:58;20.80;99.90
22781;DHT22;11557;50.884;4.322;2022-09-13T04:30:25;20.70;99.90
22781;DHT22;11557;50.884;4.322;2022-09-13T04:32:51;20.70;99.90
22781;DHT22;11557;50.884;4.322;2022-09-13T04:35:16;20.70;99.90
22781;DHT22;11557;50.884;4.322;2022-09-13T04:37:43;20.20;99.90
22781;DHT22;11557;50.884;4.322;2022-09-13T04:40:09;20.70;99.90
22781;DHT22;11557;50.884;4.322;2022-09-13T04:42:35;20.70;99.90
22781;DHT22;11557;50.884;4.322;2022-09-13T04:45:01;20.60;99.90
22781;DHT22;11557;50.884;4.322;2022-09-13T04:47:27;20.60;99.90
22781;DHT22;11557;50.884;4.322;2022-09-13T04:49:52;20.60;99.90
22781;DHT22;11557;50.884;4.322;2022-09-13T04:52:18;20.70;99.90
22781;DHT22;11557;50.884;4.322;2022-09-13T04:54:44;20.70;99.90
22781;DHT22;11557;50.884;4.322;2022-09-13T04:57:13;20.60;99.90
22781;DHT22;11557;50.884;4.322;2022-09-13T04:59:39;20.60;99.90
22781;DHT22;11557;50.884;4.322;2022-09-13T05:02:04;20.60;99.90
22781;DHT22;11557;50.884;4.322;2022-09-13T05:04:30;20.70;99.90
22781;DHT22;11557;50.884;4.322;2022-09-13T05:06:56;20.70;99.90
22781;DHT22;11557;50.884;4.322;2022-09-13T05:09:23;20.70;99.90
22781;DHT22;11557;50.884;4.322;2022-09-13T05:11:49;20.70;99.90
22781;DHT22;11557;50.884;4.322;2022-09-13T05:14:15;20.70;99.90
22781;DHT22;11557;50.884;4.322;2022-09-13T05:16:41;20.70;99.90
22781;DHT22;11557;50.884;4.322;2022-09-13T05:19:07;20.70;99.90
22781;DHT22;11557;50.884;4.322;2022-09-13T05:21:33;20.70;99.90
22781;DHT22;11557;50.884;4.322;2022-09-13T05:23:59;20.70;99.90
22781;DHT22;11557;50.884;4.322;2022-09-13T05:26:26;20.60;99.90
22781;DHT22;11557;50.884;4.322;2022-09-13T05:28:55;20.60;99.90
22781;DHT22;11557;50.884;4.322;2022-09-13T05:31:23;20.60;99.90
22781;DHT22;11557;50.884;4.322;2022-09-13T05:33:56;20.50;99.90
22781;DHT22;11557;50.884;4.322;2022-09-13T05:36:23;20.50;99.90
22781;DHT22;11557;50.884;4.322;2022-09-13T05:38:50;20.50;99.90
22781;DHT22;11557;50.884;4.322;2022-09-13T05:41:15;20.50;99.90
22781;DHT22;11557;50.884;4.322;2022-09-13T05:43:41;20.60;99.90
22781;DHT22;11557;50.884;4.322;2022-09-13T05:46:15;20.60;99.90
22781;DHT22;11557;50.884;4.322;2022-09-13T05:48:41;20.50;99.90
22781;DHT22;11557;50.884;4.322;2022-09-13T05:51:20;20.50;99.90
22781;DHT22;11557;50.884;4.322;2022-09-13T05:53:48;20.50;99.90
22781;DHT22;11557;50.884;4.322;2022-09-13T05:56:16;20.50;99.90
22781;DHT22;11557;50.884;4.322;2022-09-13T05:58:44;20.50;99.90
22781;DHT22;11557;50.884;4.322;2022-09-13T06:01:13;20.60;99.90
22781;DHT22;11557;50.884;4.322;2022-09-13T06:03:39;20.60;99.90
22781;DHT22;11557;50.884;4.322;2022-09-13T06:06:05;20.60;99.90
22781;DHT22;11557;50.884;4.322;2022-09-13T06:08:32;20.60;99.90
22781;DHT22;11557;50.884;4.322;2022-09-13T06:11:03;20.60;99.90
22781;DHT22;11557;50.884;4.322;2022-09-13T06:13:30;20.60;99.90
22781;DHT22;11557;50.884;4.322;2022-09-13T06:15:57;20.70;99.90
22781;DHT22;11557;50.884;4.322;2022-09-13T06:18:23;20.70;99.90
22781;DHT22;11557;50.884;4.322;2022-09-13T06:20:50;20.70;99.90
22781;DHT22;11557;50.884;4.322;2022-09-13T06:23:16;20.70;99.90
22781;DHT22;11557;50.884;4.322;2022-09-13T06:25:42;20.70;99.90
22781;DHT22;11557;50.884;4.322;2022-09-13T06:28:08;20.80;99.90
22781;DHT22;11557;50.884;4.322;2022-09-13T06:30:34;20.80;99.90
22781;DHT22;11557;50.884;4.322;2022-09-13T06:33:00;20.90;99.90
22781;DHT22;11557;50.884;4.322;2022-09-13T06:35:26;20.90;99.90
22781;DHT22;11557;50.884;4.322;2022-09-13T06:37:54;20.90;99.90
22781;DHT22;11557;50.884;4.322;2022-09-13T06:40:22;20.90;99.90
22781;DHT22;11557;50.884;4.322;2022-09-13T06:42:48;20.90;99.90
22781;DHT22;11557;50.884;4.322;2022-09-13T06:45:13;21.00;99.90
22781;DHT22;11557;50.884;4.322;2022-09-13T06:47:39;21.00;99.90
22781;DHT22;11557;50.884;4.322;2022-09-13T06:50:05;21.10;99.90
22781;DHT22;11557;50.884;4.322;2022-09-13T06:52:31;21.10;99.90
22781;DHT22;11557;50.884;4.322;2022-09-13T06:54:57;21.20;99.90
22781;DHT22;11557;50.884;4.322;2022-09-13T06:57:23;21.20;99.90
22781;DHT22;11557;50.884;4.322;2022-09-13T06:59:49;21.30;99.90
22781;DHT22;11557;50.884;4.322;2022-09-13T07:02:14;21.40;99.90
22781;DHT22;11557;50.884;4.322;2022-09-13T07:04:40;21.50;99.90
22781;DHT22;11557;50.884;4.322;2022-09-13T07:07:06;21.50;99.90
22781;DHT22;11557;50.884;4.322;2022-09-13T07:09:31;21.60;99.90
22781;DHT22;11557;50.884;4.322;2022-09-13T07:11:59;21.60;99.90
22781;DHT22;11557;50.884;4.322;2022-09-13T07:14:26;21.50;99.90
22781;DHT22;11557;50.884;4.322;2022-09-13T07:16:53;21.60;99.90
22781;DHT22;11557;50.884;4.322;2022-09-13T07:19:20;21.90;99.90
22781;DHT22;11557;50.884;4.322;2022-09-13T07:21:47;21.70;99.90
22781;DHT22;11557;50.884;4.322;2022-09-13T07:24:15;21.90;99.90
22781;DHT22;11557;50.884;4.322;2022-09-13T07:26:40;22.10;99.90
22781;DHT22;11557;50.884;4.322;2022-09-13T07:29:09;22.20;99.90
22781;DHT22;11557;50.884;4.322;2022-09-13T07:31:37;22.10;99.90
22781;DHT22;11557;50.884;4.322;2022-09-13T07:34:10;22.20;99.90
22781;DHT22;11557;50.884;4.322;2022-09-13T07:36:39;22.30;99.90
22781;DHT22;11557;50.884;4.322;2022-09-13T07:39:05;22.40;99.90
22781;DHT22;11557;50.884;4.322;2022-09-13T07:41:32;22.30;99.90
22781;DHT22;11557;50.884;4.322;2022-09-13T07:43:58;22.40;99.90
22781;DHT22;11557;50.884;4.322;2022-09-13T07:46:38;22.60;99.90
22781;DHT22;11557;50.884;4.322;2022-09-13T07:49:12;22.80;99.90
22781;DHT22;11557;50.884;4.322;2022-09-13T07:51:41;23.00;99.90
22781;DHT22;11557;50.884;4.322;2022-09-13T07:54:13;23.10;99.90
22781;DHT22;11557;50.884;4.322;2022-09-13T07:56:40;23.20;99.90
22781;DHT22;11557;50.884;4.322;2022-09-13T07:59:10;23.30;99.90
22781;DHT22;11557;50.884;4.322;2022-09-13T08:01:40;23.40;99.90
22781;DHT22;11557;50.884;4.322;2022-09-13T08:04:13;23.20;99.90
22781;DHT22;11557;50.884;4.322;2022-09-13T08:06:43;23.30;99.90
22781;DHT22;11557;50.884;4.322;2022-09-13T08:09:09;23.40;99.90
22781;DHT22;11557;50.884;4.322;2022-09-13T08:14:04;23.30;99.90
22781;DHT22;11557;50.884;4.322;2022-09-13T08:16:30;23.20;99.90
22781;DHT22;11557;50.884;4.322;2022-09-13T08:18:59;23.00;99.90
22781;DHT22;11557;50.884;4.322;2022-09-13T08:21:25;23.10;99.90
22781;DHT22;11557;50.884;4.322;2022-09-13T08:23:55;22.90;99.90
22781;DHT22;11557;50.884;4.322;2022-09-13T08:26:21;23.10;99.90
22781;DHT22;11557;50.884;4.322;2022-09-13T08:28:47;23.40;99.90
22781;DHT22;11557;50.884;4.322;2022-09-13T08:31:14;23.50;99.90
22781;DHT22;11557;50.884;4.322;2022-09-13T08:33:46;23.50;99.90
22781;DHT22;11557;50.884;4.322;2022-09-13T08:36:15;23.60;99.90
22781;DHT22;11557;50.884;4.322;2022-09-13T08:38:56;23.30;99.90
22781;DHT22;11557;50.884;4.322;2022-09-13T08:44:34;23.80;99.90
22781;DHT22;11557;50.884;4.322;2022-09-13T08:47:37;23.80;99.90
22781;DHT22;11557;50.884;4.322;2022-09-13T08:50:13;24.00;99.90
22781;DHT22;11557;50.884;4.322;2022-09-13T09:00:42;24.30;99.90
22781;DHT22;11557;50.884;4.322;2022-09-13T09:03:40;24.70;99.90
22781;DHT22;11557;50.884;4.322;2022-09-13T09:06:15;25.60;99.90
22781;DHT22;11557;50.884;4.322;2022-09-13T09:11:25;27.50;99.90
22781;DHT22;11557;50.884;4.322;2022-09-13T09:14:04;28.10;99.90
22781;DHT22;11557;50.884;4.322;2022-09-13T09:16:41;28.60;99.90
22781;DHT22;11557;50.884;4.322;2022-09-13T09:21:44;29.40;99.90
22781;DHT22;11557;50.884;4.322;2022-09-13T09:24:22;29.60;99.90
22781;DHT22;11557;50.884;4.322;2022-09-13T09:26:48;29.70;99.90
22781;DHT22;11557;50.884;4.322;2022-09-13T09:29:19;29.60;99.90
22781;DHT22;11557;50.884;4.322;2022-09-13T09:32:28;30.40;99.90
22781;DHT22;11557;50.884;4.322;2022-09-13T09:38:47;32.40;99.90
22781;DHT22;11557;50.884;4.322;2022-09-13T09:41:16;31.70;99.90
22781;DHT22;11557;50.884;4.322;2022-09-13T09:44:00;31.00;99.90
22781;DHT22;11557;50.884;4.322;2022-09-13T09:46:37;30.40;99.90
22781;DHT22;11557;50.884;4.322;2022-09-13T09:51:55;29.90;99.90
22781;DHT22;11557;50.884;4.322;2022-09-13T09:54:23;29.70;99.90
22781;DHT22;11557;50.884;4.322;2022-09-13T09:56:54;29.60;99.90
22781;DHT22;11557;50.884;4.322;2022-09-13T09:59:30;29.40;99.90
22781;DHT22;11557;50.884;4.322;2022-09-13T10:02:12;29.10;99.90
22781;DHT22;11557;50.884;4.322;2022-09-13T10:04:39;29.00;99.90
22781;DHT22;11557;50.884;4.322;2022-09-13T10:07:32;28.80;99.90
22781;DHT22;11557;50.884;4.322;2022-09-13T10:10:05;28.70;99.90
22781;DHT22;11557;50.884;4.322;2022-09-13T10:12:39;28.50;99.90
22781;DHT22;11557;50.884;4.322;2022-09-13T10:15:19;28.30;99.90
22781;DHT22;11557;50.884;4.322;2022-09-13T10:20:30;28.20;99.90
22781;DHT22;11557;50.884;4.322;2022-09-13T10:23:18;28.20;99.90
22781;DHT22;11557;50.884;4.322;2022-09-13T10:26:17;28.20;99.90
22781;DHT22;11557;50.884;4.322;2022-09-13T10:31:12;28.30;99.90
22781;DHT22;11557;50.884;4.322;2022-09-13T10:34:03;28.20;99.90
22781;DHT22;11557;50.884;4.322;2022-09-13T10:36:34;28.20;99.90
22781;DHT22;11557;50.884;4.322;2022-09-13T10:39:03;28.20;99.90
22781;DHT22;11557;50.884;4.322;2022-09-13T10:41:31;28.10;99.90
22781;DHT22;11557;50.884;4.322;2022-09-13T10:44:03;28.00;99.90
22781;DHT22;11557;50.884;4.322;2022-09-13T10:46:32;28.00;99.90
22781;DHT22;11557;50.884;4.322;2022-09-13T10:48:59;27.90;99.90
22781;DHT22;11557;50.884;4.322;2022-09-13T10:51:34;27.80;99.90
22781;DHT22;11557;50.884;4.322;2022-09-13T10:54:19;27.90;99.90
22781;DHT22;11557;50.884;4.322;2022-09-13T10:56:48;28.10;99.90
22781;DHT22;11557;50.884;4.322;2022-09-13T10:59:26;28.20;99.90
22781;DHT22;11557;50.884;4.322;2022-09-13T11:22:08;28.10;99.90
22781;DHT22;11557;50.884;4.322;2022-09-13T11:27:41;28.10;99.90
22781;DHT22;11557;50.884;4.322;2022-09-13T11:30:17;28.10;99.90
22781;DHT22;11557;50.884;4.322;2022-09-13T11:44:47;28.00;99.90
22781;DHT22;11557;50.884;4.322;2022-09-13T11:47:44;27.90;99.90
22781;DHT22;11557;50.884;4.322;2022-09-13T11:56:25;27.90;99.90
22781;DHT22;11557;50.884;4.322;2022-09-13T11:59:10;28.00;99.90
22781;DHT22;11557;50.884;4.322;2022-09-13T12:01:44;28.10;99.90
22781;DHT22;11557;50.884;4.322;2022-09-13T12:04:37;28.10;99.90
22781;DHT22;11557;50.884;4.322;2022-09-13T12:07:27;28.00;99.90
22781;DHT22;11557;50.884;4.322;2022-09-13T12:10:05;27.80;99.90
22781;DHT22;11557;50.884;4.322;2022-09-13T12:12:35;27.70;99.90
22781;DHT22;11557;50.884;4.322;2022-09-13T12:15:05;27.70;99.90
22781;DHT22;11557;50.884;4.322;2022-09-13T12:17:42;27.60;99.90
22781;DHT22;11557;50.884;4.322;2022-09-13T12:20:29;27.60;99.90
22781;DHT22;11557;50.884;4.322;2022-09-13T12:22:59;27.60;99.90
22781;DHT22;11557;50.884;4.322;2022-09-13T12:25:44;27.60;99.90
22781;DHT22;11557;50.884;4.322;2022-09-13T12:28:20;27.50;99.90
22781;DHT22;11557;50.884;4.322;2022-09-13T12:30:59;27.50;99.90
22781;DHT22;11557;50.884;4.322;2022-09-13T12:33:26;27.40;99.90
22781;DHT22;11557;50.884;4.322;2022-09-13T12:36:19;27.40;99.90
22781;DHT22;11557;50.884;4.322;2022-09-13T12:44:24;27.00;99.90
22781;DHT22;11557;50.884;4.322;2022-09-13T12:47:00;26.90;99.90
22781;DHT22;11557;50.884;4.322;2022-09-13T12:52:33;26.60;99.90
22781;DHT22;11557;50.884;4.322;2022-09-13T13:01:07;26.40;99.90
22781;DHT22;11557;50.884;4.322;2022-09-13T13:03:54;26.30;99.90
22781;DHT22;11557;50.884;4.322;2022-09-13T13:06:36;26.20;99.90
22781;DHT22;11557;50.884;4.322;2022-09-13T13:09:39;26.00;99.90
22781;DHT22;11557;50.884;4.322;2022-09-13T13:12:24;26.00;99.90
22781;DHT22;11557;50.884;4.322;2022-09-13T13:14:51;25.90;99.90
22781;DHT22;11557;50.884;4.322;2022-09-13T13:17:46;25.90;99.90
22781;DHT22;11557;50.884;4.322;2022-09-13T13:23:18;25.80;99.90
22781;DHT22;11557;50.884;4.322;2022-09-13T13:46:50;25.40;99.90
22781;DHT22;11557;50.884;4.322;2022-09-13T13:57:38;25.30;99.90
22781;DHT22;11557;50.884;4.322;2022-09-13T14:00:26;25.30;99.90
22781;DHT22;11557;50.884;4.322;2022-09-13T14:05:26;25.30;99.90
22781;DHT22;11557;50.884;4.322;2022-09-13T14:08:02;25.20;99.90
22781;DHT22;11557;50.884;4.322;2022-09-13T14:16:13;25.10;99.90
22781;DHT22;11557;50.884;4.322;2022-09-13T14:18:48;25.10;99.90
22781;DHT22;11557;50.884;4.322;2022-09-13T14:21:28;25.10;99.90
22781;DHT22;11557;50.884;4.322;2022-09-13T14:24:18;25.00;99.90
22781;DHT22;11557;50.884;4.322;2022-09-13T14:26:55;25.00;99.90
22781;DHT22;11557;50.884;4.322;2022-09-13T14:29:23;25.00;99.90
22781;DHT22;11557;50.884;4.322;2022-09-13T14:32:02;25.00;99.90
22781;DHT22;11557;50.884;4.322;2022-09-13T14:34:31;24.90;99.90
22781;DHT22;11557;50.884;4.322;2022-09-13T14:37:03;24.20;99.90
22781;DHT22;11557;50.884;4.322;2022-09-13T14:39:30;24.90;99.90
22781;DHT22;11557;50.884;4.322;2022-09-13T14:42:12;24.80;99.90
22781;DHT22;11557;50.884;4.322;2022-09-13T14:44:43;24.70;99.90
22781;DHT22;11557;50.884;4.322;2022-09-13T14:47:27;24.70;99.90
22781;DHT22;11557;50.884;4.322;2022-09-13T14:50:02;24.60;99.90
22781;DHT22;11557;50.884;4.322;2022-09-13T14:52:33;24.60;99.90
22781;DHT22;11557;50.884;4.322;2022-09-13T14:55:02;24.50;99.90
22781;DHT22;11557;50.884;4.322;2022-09-13T14:57:37;24.30;99.90
22781;DHT22;11557;50.884;4.322;2022-09-13T15:00:14;24.20;99.90
22781;DHT22;11557;50.884;4.322;2022-09-13T15:02:54;24.20;99.90
22781;DHT22;11557;50.884;4.322;2022-09-13T15:05:26;24.20;99.90
22781;DHT22;11557;50.884;4.322;2022-09-13T15:07:52;24.30;99.90
22781;DHT22;11557;50.884;4.322;2022-09-13T15:10:44;24.30;99.90
22781;DHT22;11557;50.884;4.322;2022-09-13T15:13:10;24.30;99.90
22781;DHT22;11557;50.884;4.322;2022-09-13T15:15:39;24.40;99.90
22781;DHT22;11557;50.884;4.322;2022-09-13T15:21:01;24.50;99.90
22781;DHT22;11557;50.884;4.322;2022-09-13T15:23:30;24.50;99.90
22781;DHT22;11557;50.884;4.322;2022-09-13T15:26:08;24.60;99.90
22781;DHT22;11557;50.884;4.322;2022-09-13T15:31:10;24.60;99.90
22781;DHT22;11557;50.884;4.322;2022-09-13T15:33:36;24.50;99.90
22781;DHT22;11557;50.884;4.322;2022-09-13T15:36:26;24.50;99.90
22781;DHT22;11557;50.884;4.322;2022-09-13T15:41:34;24.50;99.90
22781;DHT22;11557;50.884;4.322;2022-09-13T15:44:04;24.50;99.90
22781;DHT22;11557;50.884;4.322;2022-09-13T15:46:30;24.60;99.90
22781;DHT22;11557;50.884;4.322;2022-09-13T15:49:00;24.50;99.90
22781;DHT22;11557;50.884;4.322;2022-09-13T15:51:27;24.60;99.90
22781;DHT22;11557;50.884;4.322;2022-09-13T15:53:53;24.50;99.90
22781;DHT22;11557;50.884;4.322;2022-09-13T15:56:41;24.60;99.90
22781;DHT22;11557;50.884;4.322;2022-09-13T15:59:14;24.60;99.90
22781;DHT22;11557;50.884;4.322;2022-09-13T16:01:41;24.60;99.90
22781;DHT22;11557;50.884;4.322;2022-09-13T16:04:07;24.60;99.90
22781;DHT22;11557;50.884;4.322;2022-09-13T16:06:34;24.60;99.90
22781;DHT22;11557;50.884;4.322;2022-09-13T16:08:59;24.50;99.90
22781;DHT22;11557;50.884;4.322;2022-09-13T16:11:26;24.50;99.90
22781;DHT22;11557;50.884;4.322;2022-09-13T16:13:52;24.50;99.90
22781;DHT22;11557;50.884;4.322;2022-09-13T16:16:18;24.60;99.90
22781;DHT22;11557;50.884;4.322;2022-09-13T16:18:43;24.50;99.90
22781;DHT22;11557;50.884;4.322;2022-09-13T16:21:09;24.50;99.90
22781;DHT22;11557;50.884;4.322;2022-09-13T16:23:35;24.50;99.90
22781;DHT22;11557;50.884;4.322;2022-09-13T16:26:00;24.50;99.90
22781;DHT22;11557;50.884;4.322;2022-09-13T16:28:26;24.50;99.90
22781;DHT22;11557;50.884;4.322;2022-09-13T16:30:52;24.40;99.90
22781;DHT22;11557;50.884;4.322;2022-09-13T16:33:18;24.40;99.90
22781;DHT22;11557;50.884;4.322;2022-09-13T16:35:45;24.30;99.90
22781;DHT22;11557;50.884;4.322;2022-09-13T16:38:11;24.30;99.90
22781;DHT22;11557;50.884;4.322;2022-09-13T16:40:41;24.30;99.90
22781;DHT22;11557;50.884;4.322;2022-09-13T16:43:07;24.20;99.90
22781;DHT22;11557;50.884;4.322;2022-09-13T16:45:37;24.10;99.90
22781;DHT22;11557;50.884;4.322;2022-09-13T16:48:03;24.10;99.90
22781;DHT22;11557;50.884;4.322;2022-09-13T16:50:28;24.10;99.90
22781;DHT22;11557;50.884;4.322;2022-09-13T16:52:54;24.00;99.90
22781;DHT22;11557;50.884;4.322;2022-09-13T16:55:20;24.00;99.90
22781;DHT22;11557;50.884;4.322;2022-09-13T16:57:46;24.00;99.90
22781;DHT22;11557;50.884;4.322;2022-09-13T17:00:15;23.90;99.90
22781;DHT22;11557;50.884;4.322;2022-09-13T17:02:45;23.80;99.90
22781;DHT22;11557;50.884;4.322;2022-09-13T17:05:12;23.80;99.90
22781;DHT22;11557;50.884;4.322;2022-09-13T17:07:38;23.80;99.90
22781;DHT22;11557;50.884;4.322;2022-09-13T17:10:06;23.70;99.90
22781;DHT22;11557;50.884;4.322;2022-09-13T17:12:32;23.70;99.90
22781;DHT22;11557;50.884;4.322;2022-09-13T17:14:58;23.70;99.90
22781;DHT22;11557;50.884;4.322;2022-09-13T17:17:25;23.70;99.90
22781;DHT22;11557;50.884;4.322;2022-09-13T17:19:53;23.70;99.90
22781;DHT22;11557;50.884;4.322;2022-09-13T17:22:18;23.70;99.90
22781;DHT22;11557;50.884;4.322;2022-09-13T17:24:45;23.60;99.90
22781;DHT22;11557;50.884;4.322;2022-09-13T17:27:11;23.60;99.90
22781;DHT22;11557;50.884;4.322;2022-09-13T17:29:36;23.50;99.90
22781;DHT22;11557;50.884;4.322;2022-09-13T17:32:03;23.50;99.90
22781;DHT22;11557;50.884;4.322;2022-09-13T17:34:31;23.50;99.90
22781;DHT22;11557;50.884;4.322;2022-09-13T17:36:59;23.40;99.90
22781;DHT22;11557;50.884;4.322;2022-09-13T17:39:25;23.40;99.90
22781;DHT22;11557;50.884;4.322;2022-09-13T17:41:50;23.40;99.90
22781;DHT22;11557;50.884;4.322;2022-09-13T17:44:16;23.40;99.90
22781;DHT22;11557;50.884;4.322;2022-09-13T17:46:42;23.30;99.90
22781;DHT22;11557;50.884;4.322;2022-09-13T17:49:08;23.20;99.90
22781;DHT22;11557;50.884;4.322;2022-09-13T17:51:34;23.30;99.90
22781;DHT22;11557;50.884;4.322;2022-09-13T17:54:03;23.30;99.90
22781;DHT22;11557;50.884;4.322;2022-09-13T17:56:36;23.30;99.90
22781;DHT22;11557;50.884;4.322;2022-09-13T17:59:07;23.20;99.90
22781;DHT22;11557;50.884;4.322;2022-09-13T18:01:35;23.20;99.90
22781;DHT22;11557;50.884;4.322;2022-09-13T18:04:02;23.10;99.90
22781;DHT22;11557;50.884;4.322;2022-09-13T18:06:28;23.10;99.90
22781;DHT22;11557;50.884;4.322;2022-09-13T18:08:53;23.10;99.90
22781;DHT22;11557;50.884;4.322;2022-09-13T18:11:21;23.10;99.90
22781;DHT22;11557;50.884;4.322;2022-09-13T18:13:47;23.00;99.90
22781;DHT22;11557;50.884;4.322;2022-09-13T18:16:17;23.10;99.90
22781;DHT22;11557;50.884;4.322;2022-09-13T18:18:43;23.10;99.90
22781;DHT22;11557;50.884;4.322;2022-09-13T18:21:11;23.00;99.90
22781;DHT22;11557;50.884;4.322;2022-09-13T18:23:39;23.00;99.90
22781;DHT22;11557;50.884;4.322;2022-09-13T18:26:08;23.00;99.90
22781;DHT22;11557;50.884;4.322;2022-09-13T18:28:35;23.00;99.90
22781;DHT22;11557;50.884;4.322;2022-09-13T18:31:02;23.00;99.90
22781;DHT22;11557;50.884;4.322;2022-09-13T18:33:30;22.90;99.90
22781;DHT22;11557;50.884;4.322;2022-09-13T18:36:05;22.90;99.90
22781;DHT22;11557;50.884;4.322;2022-09-13T18:38:37;22.90;99.90
22781;DHT22;11557;50.884;4.322;2022-09-13T18:41:09;22.90;99.90
22781;DHT22;11557;50.884;4.322;2022-09-13T18:43:36;22.90;99.90
22781;DHT22;11557;50.884;4.322;2022-09-13T18:46:10;22.90;99.90
22781;DHT22;11557;50.884;4.322;2022-09-13T18:48:44;22.90;99.90
22781;DHT22;11557;50.884;4.322;2022-09-13T18:51:14;22.90;99.90
22781;DHT22;11557;50.884;4.322;2022-09-13T18:53:40;22.90;99.90
22781;DHT22;11557;50.884;4.322;2022-09-13T18:56:08;22.90;99.90
22781;DHT22;11557;50.884;4.322;2022-09-13T18:58:35;22.90;99.90
22781;DHT22;11557;50.884;4.322;2022-09-13T19:01:27;22.90;99.90
22781;DHT22;11557;50.884;4.322;2022-09-13T19:04:07;22.80;99.90
22781;DHT22;11557;50.884;4.322;2022-09-13T19:06:38;22.80;99.90
22781;DHT22;11557;50.884;4.322;2022-09-13T19:09:05;22.80;99.90
22781;DHT22;11557;50.884;4.322;2022-09-13T19:11:39;22.80;99.90
22781;DHT22;11557;50.884;4.322;2022-09-13T19:14:05;22.80;99.90
22781;DHT22;11557;50.884;4.322;2022-09-13T19:16:32;22.80;99.90